Time;durP1;ratioP1;P1;durP2;ratioP2;P2;SDS_P1;SDS_P2;PMS_P1;PMS_P2;Temp;Humidity;BMP_temperature;BMP_pressure;BME280_temperature;BME280_humidity;BME280_pressure;Samples;Min_cycle;Max_cycle;Signal;HPM_P1;HPM_P2
2023/08/10 00:02:12;;;;;;;2.63;2.15;;;;;;;;;;5074411;28;20032;-22
2023/08/10 00:04:38;;;;;;;3.10;2.20;;;;;;;;;;5074426;28;20032;-19
2023/08/10 00:07:05;;;;;;;5.03;2.38;;;;;;;;;;5074368;28;20083;-20
2023/08/10 00:09:31;;;;;;;8.82;4.05;;;;;;;;;;5074665;28;20028;-18
2023/08/10 00:11:57;;;;;;;3.42;3.10;;;;;;;;;;5074308;28;20051;-20
2023/08/10 00:14:23;;;;;;;2.17;2.00;;;;;;;;;;5074621;28;20028;-21
2023/08/10 00:16:50;;;;;;;4.90;2.60;;;;;;;;;;5074644;28;20024;-22
2023/08/10 00:19:16;;;;;;;2.53;2.13;;;;;;;;;;5074704;28;20024;-22
2023/08/10 00:21:42;;;;;;;2.53;2.20;;;;;;;;;;5078242;28;20028;-16
2023/08/10 00:24:08;;;;;;;2.67;1.73;;;;;;;;;;5078293;28;20025;-19
2023/08/10 00:26:34;;;;;;;6.57;2.55;;;;;;;;;;5078409;28;20029;-20
2023/08/10 00:29:00;;;;;;;2.50;2.30;;;;;;;;;;5078451;28;20321;-21
2023/08/10 00:31:27;;;;;;;3.10;2.53;;;;;;;;;;5078015;28;20071;-20
2023/08/10 00:33:53;;;;;;;3.30;2.60;;;;;;;;;;5078123;28;20439;-20
2023/08/10 00:36:20;;;;;;;3.45;2.67;;;;;;;;;;5078002;28;20177;-17
2023/08/10 00:38:46;;;;;;;2.45;2.10;;;;;;;;;;5078007;28;20025;-17
2023/08/10 00:41:13;;;;;;;2.60;2.10;;;;;;;;;;5077851;28;20028;-22
2023/08/10 00:43:42;;;;;;;5.28;2.42;;;;;;;;;;5078113;28;20048;-16
2023/08/10 00:46:10;;;;;;;4.78;2.05;;;;;;;;;;5077818;28;20027;-20
2023/08/10 00:48:36;;;;;;;2.25;1.85;;;;;;;;;;5078102;28;20067;-19
2023/08/10 00:51:02;;;;;;;4.25;2.42;;;;;;;;;;5077745;28;20424;-20
2023/08/10 00:53:28;;;;;;;2.95;2.25;;;;;;;;;;5077951;28;20039;-22
2023/08/10 00:55:55;;;;;;;3.03;2.15;;;;;;;;;;5077699;28;20085;-22
2023/08/10 00:58:22;;;;;;;2.85;2.65;;;;;;;;;;5077618;28;20028;-22
2023/08/10 01:00:49;;;;;;;2.63;2.42;;;;;;;;;;5077554;28;20470;-20
2023/08/10 01:03:15;;;;;;;2.50;2.30;;;;;;;;;;5077827;28;20359;-18
2023/08/10 01:05:50;;;;;;;2.38;2.17;;;;;;;;;;5060044;28;20119;-18
2023/08/10 01:08:26;;;;;;;2.50;2.10;;;;;;;;;;5077728;28;20185;-23
2023/08/10 01:11:01;;;;;;;4.35;2.58;;;;;;;;;;5077645;28;20455;-20
2023/08/10 01:13:35;;;;;;;5.68;2.35;;;;;;;;;;5077614;28;20374;-20
2023/08/10 01:16:04;;;;;;;3.58;2.17;;;;;;;;;;5077604;28;20107;-20
2023/08/10 01:18:31;;;;;;;3.58;2.72;;;;;;;;;;5077760;28;20036;-19
2023/08/10 01:20:59;;;;;;;4.63;2.10;;;;;;;;;;5077421;28;20422;-18
2023/08/10 01:23:42;;;;;;;2.47;2.05;;;;;;;;;;5059564;28;20029;-20
2023/08/10 01:26:09;;;;;;;2.40;2.20;;;;;;;;;;5077660;28;20440;-19
2023/08/10 01:28:36;;;;;;;4.82;1.92;;;;;;;;;;5059497;28;20132;-19
2023/08/10 01:31:02;;;;;;;4.07;2.47;;;;;;;;;;5058816;28;20029;-21
2023/08/10 01:33:29;;;;;;;2.83;2.28;;;;;;;;;;5077011;28;20077;-18
2023/08/10 01:35:56;;;;;;;3.63;2.22;;;;;;;;;;5077493;28;20103;-21
2023/08/10 01:38:22;;;;;;;2.50;2.20;;;;;;;;;;5059512;28;20048;-19
2023/08/10 01:40:50;;;;;;;2.40;2.05;;;;;;;;;;5076814;28;20094;-19
2023/08/10 01:43:16;;;;;;;2.88;2.40;;;;;;;;;;5077107;28;20021;-19
2023/08/10 01:45:45;;;;;;;3.88;2.08;;;;;;;;;;5076856;28;20037;-23
2023/08/10 01:48:21;;;;;;;2.38;2.10;;;;;;;;;;5076743;28;20036;-18
2023/08/10 01:50:49;;;;;;;2.13;1.92;;;;;;;;;;5076630;28;20031;-19
2023/08/10 01:53:16;;;;;;;2.17;1.80;;;;;;;;;;5076616;28;20052;-18
2023/08/10 01:55:43;;;;;;;2.05;1.88;;;;;;;;;;5076526;28;20459;-20
2023/08/10 01:58:09;;;;;;;4.38;2.13;;;;;;;;;;5058899;28;20082;-18
2023/08/10 02:00:37;;;;;;;5.10;1.80;;;;;;;;;;5076380;28;20467;-23
2023/08/10 02:03:06;;;;;;;1.75;1.65;;;;;;;;;;5076678;28;20060;-20
2023/08/10 02:05:32;;;;;;;3.25;2.08;;;;;;;;;;5076323;28;20071;-20
2023/08/10 02:07:58;;;;;;;2.00;1.83;;;;;;;;;;5076361;28;20038;-23
2023/08/10 02:10:25;;;;;;;2.40;2.20;;;;;;;;;;5076234;28;20060;-20
2023/08/10 02:12:51;;;;;;;2.92;2.10;;;;;;;;;;5076513;28;20039;-20
2023/08/10 02:15:17;;;;;;;7.72;4.65;;;;;;;;;;5076185;28;20032;-17
2023/08/10 02:17:43;;;;;;;2.80;2.05;;;;;;;;;;5076107;28;20024;-17
2023/08/10 02:20:13;;;;;;;4.65;2.03;;;;;;;;;;5076596;28;20024;-17
2023/08/10 02:22:41;;;;;;;2.85;2.20;;;;;;;;;;5076549;28;20099;-19
2023/08/10 02:25:07;;;;;;;2.30;2.10;;;;;;;;;;5075811;28;20036;-19
2023/08/10 02:27:33;;;;;;;3.35;2.10;;;;;;;;;;5076163;28;20409;-20
2023/08/10 02:30:00;;;;;;;3.08;2.17;;;;;;;;;;5075882;28;20052;-20
2023/08/10 02:32:26;;;;;;;2.60;1.85;;;;;;;;;;5076013;28;20169;-23
2023/08/10 02:34:52;;;;;;;2.92;2.00;;;;;;;;;;5076363;28;20021;-23
2023/08/10 02:37:19;;;;;;;3.03;2.08;;;;;;;;;;5075780;28;20481;-18
2023/08/10 02:39:45;;;;;;;2.33;2.03;;;;;;;;;;5075723;28;20094;-19
2023/08/10 02:42:11;;;;;;;2.08;1.88;;;;;;;;;;5075019;28;20020;-19
2023/08/10 02:44:38;;;;;;;3.08;2.78;;;;;;;;;;5075532;28;20060;-19
2023/08/10 02:47:05;;;;;;;2.83;2.35;;;;;;;;;;5075430;28;20039;-17
2023/08/10 02:49:31;;;;;;;2.58;1.80;;;;;;;;;;5075535;28;20024;-19
2023/08/10 02:51:57;;;;;;;2.15;1.70;;;;;;;;;;5075974;28;20339;-19
2023/08/10 02:54:23;;;;;;;2.25;2.05;;;;;;;;;;5075419;28;20031;-20
2023/08/10 02:56:49;;;;;;;3.53;2.28;;;;;;;;;;5075420;28;20079;-19
2023/08/10 02:59:15;;;;;;;5.00;2.53;;;;;;;;;;5075357;28;20093;-20
2023/08/10 03:01:41;;;;;;;2.33;2.13;;;;;;;;;;5075219;28;20467;-18
2023/08/10 03:04:07;;;;;;;2.47;1.90;;;;;;;;;;5075242;28;20035;-17
2023/08/10 03:06:33;;;;;;;2.33;2.20;;;;;;;;;;5075403;28;20111;-20
2023/08/10 03:08:59;;;;;;;2.47;2.28;;;;;;;;;;5075118;28;20031;-23
2023/08/10 03:11:26;;;;;;;3.03;2.28;;;;;;;;;;5075062;28;20394;-21
2023/08/10 03:13:52;;;;;;;1.90;1.80;;;;;;;;;;5075354;28;20027;-19
2023/08/10 03:16:18;;;;;;;2.97;1.80;;;;;;;;;;5075308;28;20035;-18
2023/08/10 03:18:45;;;;;;;2.65;1.88;;;;;;;;;;5074939;28;20032;-19
2023/08/10 03:21:11;;;;;;;4.07;2.00;;;;;;;;;;5074847;28;20032;-21
2023/08/10 03:23:37;;;;;;;3.65;2.60;;;;;;;;;;5074917;28;20025;-17
2023/08/10 03:26:04;;;;;;;1.70;1.60;;;;;;;;;;5074892;28;20020;-20
2023/08/10 03:28:30;;;;;;;4.00;2.03;;;;;;;;;;5074906;28;20025;-19
2023/08/10 03:30:56;;;;;;;2.20;2.00;;;;;;;;;;5074781;28;20092;-19
2023/08/10 03:33:22;;;;;;;2.75;2.05;;;;;;;;;;5074785;28;20021;-20
2023/08/10 03:35:48;;;;;;;2.05;1.75;;;;;;;;;;5075043;28;20024;-18
2023/08/10 03:38:14;;;;;;;2.35;1.90;;;;;;;;;;5074752;28;20039;-17
2023/08/10 03:40:41;;;;;;;3.28;1.80;;;;;;;;;;5074621;28;20474;-22
2023/08/10 03:43:07;;;;;;;3.38;2.10;;;;;;;;;;5074934;28;20059;-19
2023/08/10 03:45:33;;;;;;;2.17;1.98;;;;;;;;;;5074279;28;20052;-21
2023/08/10 03:47:59;;;;;;;3.85;1.92;;;;;;;;;;5074918;28;20130;-22
2023/08/10 03:50:25;;;;;;;2.95;2.05;;;;;;;;;;5074489;28;20036;-21
2023/08/10 03:52:51;;;;;;;2.33;1.88;;;;;;;;;;5074809;28;20109;-19
2023/08/10 03:55:19;;;;;;;2.00;1.90;;;;;;;;;;5074955;28;20024;-20
2023/08/10 03:57:45;;;;;;;1.70;1.60;;;;;;;;;;5074657;28;20017;-22
2023/08/10 04:00:13;;;;;;;3.10;2.28;;;;;;;;;;5074572;28;20028;-24
2023/08/10 04:02:39;;;;;;;1.98;1.55;;;;;;;;;;5074463;28;20024;-21
2023/08/10 04:05:10;;;;;;;2.35;2.15;;;;;;;;;;5074881;28;20048;-24
2023/08/10 04:07:37;;;;;;;1.73;1.60;;;;;;;;;;5074757;28;20020;-20
2023/08/10 04:10:05;;;;;;;1.95;1.60;;;;;;;;;;5074565;28;20042;-18
2023/08/10 04:12:32;;;;;;;1.92;1.70;;;;;;;;;;5074205;28;20059;-17
2023/08/10 04:14:59;;;;;;;3.90;1.52;;;;;;;;;;5057390;28;20031;-19
2023/08/10 04:17:25;;;;;;;1.83;1.60;;;;;;;;;;5074533;28;20036;-18
2023/08/10 04:19:51;;;;;;;2.40;1.90;;;;;;;;;;5074245;28;20020;-19
2023/08/10 04:22:17;;;;;;;2.30;1.58;;;;;;;;;;5074225;28;20024;-22
2023/08/10 04:24:43;;;;;;;3.47;1.70;;;;;;;;;;5073959;28;20026;-20
2023/08/10 04:27:09;;;;;;;2.05;1.92;;;;;;;;;;5074288;28;20025;-21
2023/08/10 04:29:35;;;;;;;3.00;1.90;;;;;;;;;;5074395;28;20016;-18
2023/08/10 04:32:01;;;;;;;2.50;1.80;;;;;;;;;;5056307;28;20443;-19
2023/08/10 04:34:28;;;;;;;2.67;1.73;;;;;;;;;;5074003;28;20027;-20
2023/08/10 04:36:54;;;;;;;3.83;2.03;;;;;;;;;;5073950;28;20032;-19
2023/08/10 04:39:20;;;;;;;1.95;1.73;;;;;;;;;;5073852;28;20028;-23
2023/08/10 04:41:46;;;;;;;1.83;1.73;;;;;;;;;;5056088;28;20048;-21
2023/08/10 04:44:12;;;;;;;1.92;1.80;;;;;;;;;;5052770;28;20531;-19
2023/08/10 04:46:39;;;;;;;4.38;1.92;;;;;;;;;;5054179;28;20033;-18
2023/08/10 04:49:05;;;;;;;2.60;1.80;;;;;;;;;;5053996;28;20025;-21
2023/08/10 04:51:32;;;;;;;2.28;2.08;;;;;;;;;;5054165;28;20355;-19
2023/08/10 04:53:58;;;;;;;2.78;1.95;;;;;;;;;;5054206;28;20017;-18
2023/08/10 04:56:24;;;;;;;2.30;1.80;;;;;;;;;;5054184;28;20523;-18
2023/08/10 04:58:50;;;;;;;3.83;1.60;;;;;;;;;;5054160;28;20086;-18
2023/08/10 05:01:16;;;;;;;2.10;1.80;;;;;;;;;;5054001;28;20111;-23
2023/08/10 05:03:43;;;;;;;1.88;1.48;;;;;;;;;;5054110;28;20452;-18
2023/08/10 05:06:09;;;;;;;2.63;2.03;;;;;;;;;;5055665;28;20025;-20
2023/08/10 05:08:35;;;;;;;3.47;1.83;;;;;;;;;;5057658;28;20021;-20
2023/08/10 05:11:01;;;;;;;3.95;1.98;;;;;;;;;;5057617;28;20021;-24
2023/08/10 05:13:28;;;;;;;1.88;1.70;;;;;;;;;;5057637;28;20025;-19
2023/08/10 05:15:54;;;;;;;1.52;1.30;;;;;;;;;;5057283;28;20040;-20
2023/08/10 05:18:23;;;;;;;5.13;1.70;;;;;;;;;;5057524;28;20025;-20
2023/08/10 05:20:50;;;;;;;5.35;1.92;;;;;;;;;;5057374;28;20021;-21
2023/08/10 05:23:16;;;;;;;1.85;1.63;;;;;;;;;;5057433;28;20029;-19
2023/08/10 05:25:42;;;;;;;2.00;1.90;;;;;;;;;;5057045;28;20359;-20
2023/08/10 05:28:08;;;;;;;2.58;1.73;;;;;;;;;;5057336;28;20028;-21
2023/08/10 05:30:35;;;;;;;1.77;1.67;;;;;;;;;;5057219;28;20036;-20
2023/08/10 05:33:02;;;;;;;3.75;1.60;;;;;;;;;;5057669;28;20052;-19
2023/08/10 05:35:28;;;;;;;2.35;1.92;;;;;;;;;;5056850;28;20025;-19
2023/08/10 05:37:54;;;;;;;2.22;2.00;;;;;;;;;;5057075;28;20059;-20
2023/08/10 05:40:20;;;;;;;2.00;1.80;;;;;;;;;;5056689;28;20040;-20
2023/08/10 05:42:46;;;;;;;4.13;1.92;;;;;;;;;;5056922;28;20082;-19
2023/08/10 05:45:16;;;;;;;2.20;1.80;;;;;;;;;;5068507;28;20040;-21
2023/08/10 05:47:43;;;;;;;1.77;1.45;;;;;;;;;;5077380;28;20039;-23
2023/08/10 05:50:09;;;;;;;3.05;1.85;;;;;;;;;;5076888;28;20020;-20
2023/08/10 05:52:36;;;;;;;1.75;1.65;;;;;;;;;;5076943;28;20370;-21
2023/08/10 05:55:02;;;;;;;1.73;1.63;;;;;;;;;;5077304;28;20075;-20
2023/08/10 05:57:29;;;;;;;3.28;1.83;;;;;;;;;;5076734;28;20013;-18
2023/08/10 05:59:55;;;;;;;1.70;1.55;;;;;;;;;;5076483;28;20024;-19
2023/08/10 06:02:22;;;;;;;3.00;1.73;;;;;;;;;;5512079;22;20510;-27
2023/08/10 06:04:49;;;;;;;3.80;2.22;;;;;;;;;;5096035;28;20036;-30
2023/08/10 06:07:15;;;;;;;4.07;2.33;;;;;;;;;;5096714;28;20460;-33
2023/08/10 06:09:41;;;;;;;1.73;1.63;;;;;;;;;;5096302;28;20017;-26
2023/08/10 06:12:08;;;;;;;4.20;2.08;;;;;;;;;;5096424;28;20039;-30
2023/08/10 06:14:34;;;;;;;3.50;1.92;;;;;;;;;;5096889;28;20024;-32
2023/08/10 06:17:00;;;;;;;5.60;2.30;;;;;;;;;;5096260;28;20038;-31
2023/08/10 06:19:26;;;;;;;4.32;1.85;;;;;;;;;;5096459;28;20516;-32
2023/08/10 06:21:52;;;;;;;2.50;1.55;;;;;;;;;;5096183;28;20028;-32
2023/08/10 06:24:19;;;;;;;2.30;1.88;;;;;;;;;;5096459;28;20039;-31
2023/08/10 06:26:45;;;;;;;3.50;1.95;;;;;;;;;;5096062;28;20107;-29
2023/08/10 06:29:12;;;;;;;2.95;1.60;;;;;;;;;;5096435;28;20016;-32
2023/08/10 06:31:38;;;;;;;3.72;1.83;;;;;;;;;;5096042;28;20036;-32
2023/08/10 06:34:04;;;;;;;5.18;1.65;;;;;;;;;;5095935;28;20092;-31
2023/08/10 06:36:30;;;;;;;3.38;1.70;;;;;;;;;;5095912;28;20024;-32
2023/08/10 06:38:57;;;;;;;3.65;1.80;;;;;;;;;;5095880;28;20107;-32
2023/08/10 06:41:23;;;;;;;5.68;2.00;;;;;;;;;;5095838;28;20032;-30
2023/08/10 06:43:49;;;;;;;3.60;1.95;;;;;;;;;;5095732;28;20458;-31
2023/08/10 06:46:15;;;;;;;3.08;1.60;;;;;;;;;;5095659;28;20024;-30
2023/08/10 06:48:41;;;;;;;7.38;2.03;;;;;;;;;;5095642;28;20020;-31
2023/08/10 06:51:07;;;;;;;9.75;2.25;;;;;;;;;;5095590;28;20020;-29
2023/08/10 06:53:34;;;;;;;5.25;2.03;;;;;;;;;;5095443;28;20113;-32
2023/08/10 06:56:00;;;;;;;5.18;2.17;;;;;;;;;;5095381;28;20525;-31
2023/08/10 06:58:26;;;;;;;8.32;1.60;;;;;;;;;;5095354;28;20032;-31
2023/08/10 07:00:52;;;;;;;4.18;2.17;;;;;;;;;;5095450;28;20032;-31
2023/08/10 07:03:18;;;;;;;1.83;1.73;;;;;;;;;;5095055;28;20131;-29
2023/08/10 07:05:45;;;;;;;3.08;1.95;;;;;;;;;;5095207;28;20028;-30
2023/08/10 07:08:11;;;;;;;5.93;1.98;;;;;;;;;;5095536;28;20414;-32
2023/08/10 07:10:37;;;;;;;2.42;2.00;;;;;;;;;;5095526;28;20031;-29
2023/08/10 07:13:04;;;;;;;5.97;1.75;;;;;;;;;;5095241;28;20031;-32
2023/08/10 07:15:33;;;;;;;5.78;2.10;;;;;;;;;;5095192;28;20062;-32
2023/08/10 07:18:00;;;;;;;15.60;3.90;;;;;;;;;;5095274;28;20042;-32
2023/08/10 07:20:26;;;;;;;31.83;5.93;;;;;;;;;;5095279;28;20387;-31
2023/08/10 07:22:52;;;;;;;13.07;4.20;;;;;;;;;;5095413;28;20355;-32
2023/08/10 07:25:19;;;;;;;5.28;1.88;;;;;;;;;;5095753;28;20023;-33
2023/08/10 07:27:46;;;;;;;5.40;2.35;;;;;;;;;;5095081;28;20081;-31
2023/08/10 07:30:15;;;;;;;6.00;1.90;;;;;;;;;;5095129;28;20035;-31
2023/08/10 07:32:42;;;;;;;2.90;2.22;;;;;;;;;;5093845;28;20348;-30
2023/08/10 07:35:09;;;;;;;3.33;1.80;;;;;;;;;;5094777;28;20020;-26
2023/08/10 07:37:36;;;;;;;3.60;1.48;;;;;;;;;;5095046;28;20043;-32
2023/08/10 07:40:06;;;;;;;2.70;1.90;;;;;;;;;;5094688;28;20453;-29
2023/08/10 07:42:32;;;;;;;5.75;1.88;;;;;;;;;;5094905;28;20039;-31
2023/08/10 07:44:58;;;;;;;3.00;1.83;;;;;;;;;;5094734;28;20024;-29
2023/08/10 07:47:24;;;;;;;3.65;1.70;;;;;;;;;;5094961;28;20028;-32
2023/08/10 07:49:50;;;;;;;5.07;1.95;;;;;;;;;;5094961;28;20446;-31
2023/08/10 07:52:16;;;;;;;4.82;1.80;;;;;;;;;;5094844;28;20099;-31
2023/08/10 07:54:42;;;;;;;4.93;1.83;;;;;;;;;;5094671;28;20362;-33
2023/08/10 07:57:08;;;;;;;3.25;1.67;;;;;;;;;;5094652;28;20028;-31
2023/08/10 07:59:35;;;;;;;3.25;1.98;;;;;;;;;;5095073;28;20020;-32
2023/08/10 08:02:01;;;;;;;4.07;1.73;;;;;;;;;;5094907;28;20024;-32
2023/08/10 08:04:27;;;;;;;3.90;1.88;;;;;;;;;;5095120;28;20093;-32
2023/08/10 08:06:53;;;;;;;2.55;1.98;;;;;;;;;;5094762;28;20365;-27
2023/08/10 08:09:20;;;;;;;4.13;2.20;;;;;;;;;;5094597;28;20464;-30
2023/08/10 08:11:46;;;;;;;2.30;1.80;;;;;;;;;;5094751;28;20325;-30
2023/08/10 08:14:12;;;;;;;5.97;2.50;;;;;;;;;;5094701;28;20020;-32
2023/08/10 08:16:38;;;;;;;4.57;2.08;;;;;;;;;;5094368;28;20024;-30
2023/08/10 08:19:05;;;;;;;3.72;2.03;;;;;;;;;;5094272;28;20078;-32
2023/08/10 08:21:31;;;;;;;4.22;2.08;;;;;;;;;;5094560;28;20409;-34
2023/08/10 08:23:58;;;;;;;2.70;1.80;;;;;;;;;;5094299;28;20070;-31
2023/08/10 08:26:26;;;;;;;5.15;2.00;;;;;;;;;;5094205;28;20031;-31
2023/08/10 08:28:52;;;;;;;3.17;1.95;;;;;;;;;;5094493;28;20429;-32
2023/08/10 08:31:18;;;;;;;8.45;1.92;;;;;;;;;;5094451;28;20044;-29
2023/08/10 08:33:44;;;;;;;2.85;1.85;;;;;;;;;;5093266;28;20446;-32
2023/08/10 08:36:10;;;;;;;6.03;2.28;;;;;;;;;;5094129;28;20034;-30
2023/08/10 08:38:37;;;;;;;5.75;2.03;;;;;;;;;;5094410;28;20095;-32
2023/08/10 08:41:07;;;;;;;3.25;1.70;;;;;;;;;;5095836;28;20039;-33
2023/08/10 08:43:34;;;;;;;3.10;2.05;;;;;;;;;;5098173;28;20061;-30
2023/08/10 08:46:00;;;;;;;3.22;1.90;;;;;;;;;;5098231;28;20447;-31
2023/08/10 08:48:27;;;;;;;4.35;2.00;;;;;;;;;;5097887;28;20101;-33
2023/08/10 08:50:54;;;;;;;3.50;2.33;;;;;;;;;;5097981;28;20470;-28
2023/08/10 08:53:20;;;;;;;2.63;2.03;;;;;;;;;;5097909;28;20457;-31
2023/08/10 08:55:47;;;;;;;5.40;2.25;;;;;;;;;;5097945;28;20054;-30
2023/08/10 08:58:16;;;;;;;2.50;2.28;;;;;;;;;;5097789;28;20038;-32
2023/08/10 09:00:47;;;;;;;1.80;1.70;;;;;;;;;;5098324;28;20044;-30
2023/08/10 09:03:13;;;;;;;5.10;2.25;;;;;;;;;;5097541;28;20043;-27
2023/08/10 09:05:40;;;;;;;6.32;3.03;;;;;;;;;;5097509;28;20028;-30
2023/08/10 09:08:06;;;;;;;4.00;2.28;;;;;;;;;;5098179;28;20020;-28
2023/08/10 09:10:32;;;;;;;5.90;2.22;;;;;;;;;;5097629;28;20324;-30
2023/08/10 09:13:09;;;;;;;3.10;2.60;;;;;;;;;;5097503;28;20504;-31
2023/08/10 09:15:35;;;;;;;3.72;2.03;;;;;;;;;;5097545;28;20361;-30
2023/08/10 09:18:04;;;;;;;5.28;2.47;;;;;;;;;;5097718;28;20031;-32
2023/08/10 09:20:31;;;;;;;6.50;2.50;;;;;;;;;;5097391;28;20152;-31
2023/08/10 09:22:57;;;;;;;4.45;1.90;;;;;;;;;;5097286;28;20073;-28
2023/08/10 09:25:24;;;;;;;3.30;2.08;;;;;;;;;;5097707;28;20039;-31
2023/08/10 09:27:51;;;;;;;3.92;2.38;;;;;;;;;;5097146;28;20020;-28
2023/08/10 09:30:17;;;;;;;7.45;2.22;;;;;;;;;;5097119;28;20024;-28
2023/08/10 09:32:43;;;;;;;7.22;2.72;;;;;;;;;;5097332;28;20055;-28
2023/08/10 09:35:14;;;;;;;5.47;2.10;;;;;;;;;;5097099;28;20024;-32
2023/08/10 09:37:41;;;;;;;3.78;2.30;;;;;;;;;;5097103;28;20458;-32
2023/08/10 09:40:10;;;;;;;6.45;2.55;;;;;;;;;;5097293;28;20028;-33
2023/08/10 09:42:37;;;;;;;2.85;2.00;;;;;;;;;;5097176;28;20083;-26
2023/08/10 09:45:08;;;;;;;3.78;2.63;;;;;;;;;;5097416;28;20032;-30
2023/08/10 09:47:38;;;;;;;7.53;2.63;;;;;;;;;;5096908;28;20024;-29
2023/08/10 09:50:05;;;;;;;6.03;3.53;;;;;;;;;;5097452;28;20021;-29
2023/08/10 09:52:33;;;;;;;10.63;2.63;;;;;;;;;;5096219;28;20020;-32
2023/08/10 09:54:59;;;;;;;7.22;2.25;;;;;;;;;;5096661;28;20044;-28
2023/08/10 09:57:27;;;;;;;6.72;3.53;;;;;;;;;;5097262;28;20031;-29
2023/08/10 09:59:54;;;;;;;4.57;2.17;;;;;;;;;;5096701;28;20130;-29
2023/08/10 10:02:21;;;;;;;9.88;3.25;;;;;;;;;;5096816;28;20342;-31
2023/08/10 10:04:47;;;;;;;6.35;2.72;;;;;;;;;;5096384;28;20039;-30
2023/08/10 10:07:16;;;;;;;9.07;2.22;;;;;;;;;;5096509;28;20032;-29
2023/08/10 10:09:45;;;;;;;2.40;2.17;;;;;;;;;;5095617;28;20039;-30
2023/08/10 10:12:12;;;;;;;2.38;2.15;;;;;;;;;;5096662;28;20024;-31
2023/08/10 10:14:40;;;;;;;3.13;2.47;;;;;;;;;;5096483;28;20068;-31
2023/08/10 10:17:06;;;;;;;4.32;2.33;;;;;;;;;;5096478;28;20035;-30
2023/08/10 10:19:33;;;;;;;5.25;2.20;;;;;;;;;;5096325;28;20107;-26
2023/08/10 10:22:00;;;;;;;4.55;2.47;;;;;;;;;;5096283;28;20047;-28
2023/08/10 10:24:33;;;;;;;4.15;2.33;;;;;;;;;;5096548;28;20032;-30
2023/08/10 10:27:00;;;;;;;4.93;2.65;;;;;;;;;;5096461;28;20379;-32
2023/08/10 10:29:36;;;;;;;5.45;2.33;;;;;;;;;;5095513;28;20077;-29
2023/08/10 10:32:06;;;;;;;6.30;2.50;;;;;;;;;;5096095;28;20028;-29
2023/08/10 10:34:33;;;;;;;2.28;1.85;;;;;;;;;;5096158;28;20103;-32
2023/08/10 10:37:18;;;;;;;3.50;2.28;;;;;;;;;;5096345;28;20093;-28
2023/08/10 10:39:45;;;;;;;6.15;2.15;;;;;;;;;;5095932;28;20020;-31
2023/08/10 10:42:12;;;;;;;3.40;2.20;;;;;;;;;;5096056;28;20028;-28
2023/08/10 10:44:56;;;;;;;2.20;2.10;;;;;;;;;;5095812;28;20020;-32
2023/08/10 10:47:33;;;;;;;4.85;2.15;;;;;;;;;;5095635;28;20024;-32
2023/08/10 10:49:59;;;;;;;10.68;2.30;;;;;;;;;;5096061;28;20020;-33
2023/08/10 10:52:37;;;;;;;9.00;3.25;;;;;;;;;;5095583;28;20032;-29
2023/08/10 10:55:06;;;;;;;3.53;2.03;;;;;;;;;;5095699;28;20450;-31
2023/08/10 10:57:33;;;;;;;6.13;2.05;;;;;;;;;;5095672;28;20024;-30
2023/08/10 11:00:00;;;;;;;16.30;3.33;;;;;;;;;;5094999;28;20507;-32
2023/08/10 11:02:27;;;;;;;14.20;2.88;;;;;;;;;;5094349;28;20028;-31
2023/08/10 11:04:53;;;;;;;10.65;2.00;;;;;;;;;;5094769;28;20490;-30
2023/08/10 11:07:19;;;;;;;9.05;2.28;;;;;;;;;;5095635;28;20028;-29
2023/08/10 11:09:45;;;;;;;6.80;3.10;;;;;;;;;;5095459;28;20020;-28
2023/08/10 11:12:11;;;;;;;12.73;2.35;;;;;;;;;;5095374;28;20020;-31
2023/08/10 11:14:41;;;;;;;10.85;2.80;;;;;;;;;;5095562;28;20016;-29
2023/08/10 11:17:10;;;;;;;7.20;2.60;;;;;;;;;;5095358;28;20038;-31
2023/08/10 11:19:37;;;;;;;12.35;3.97;;;;;;;;;;5095814;28;20332;-32
2023/08/10 11:22:03;;;;;;;13.20;2.75;;;;;;;;;;5095226;28;20360;-30
2023/08/10 11:24:29;;;;;;;10.20;2.92;;;;;;;;;;5095425;28;20024;-31
2023/08/10 11:26:56;;;;;;;11.68;2.35;;;;;;;;;;5095316;28;20051;-30
2023/08/10 11:29:22;;;;;;;3.38;2.25;;;;;;;;;;5095387;28;20032;-32
2023/08/10 11:31:49;;;;;;;3.03;2.33;;;;;;;;;;5094963;28;20447;-30
2023/08/10 11:34:23;;;;;;;4.65;2.25;;;;;;;;;;5095300;28;20036;-29
2023/08/10 11:36:49;;;;;;;3.97;2.20;;;;;;;;;;5095243;28;20032;-31
2023/08/10 11:39:16;;;;;;;13.60;2.70;;;;;;;;;;5095313;28;20043;-28
2023/08/10 11:41:43;;;;;;;7.60;2.40;;;;;;;;;;5094981;28;20028;-32
2023/08/10 11:44:09;;;;;;;5.20;2.30;;;;;;;;;;5094867;28;20027;-29
2023/08/10 11:46:35;;;;;;;4.93;2.92;;;;;;;;;;5095341;28;20028;-29
2023/08/10 11:49:02;;;;;;;5.85;2.15;;;;;;;;;;5093820;28;20461;-31
2023/08/10 11:51:34;;;;;;;5.55;2.22;;;;;;;;;;5095087;28;20031;-31
2023/08/10 11:54:10;;;;;;;7.82;2.50;;;;;;;;;;5094736;28;20016;-31
2023/08/10 11:56:46;;;;;;;9.23;2.95;;;;;;;;;;5094657;28;20147;-34
2023/08/10 11:59:14;;;;;;;5.07;2.50;;;;;;;;;;5094728;28;20036;-34
2023/08/10 12:01:53;;;;;;;6.60;2.75;;;;;;;;;;5094648;28;20056;-33
2023/08/10 12:04:20;;;;;;;6.65;2.90;;;;;;;;;;5094497;28;20040;-28
2023/08/10 12:06:46;;;;;;;13.40;2.53;;;;;;;;;;5094529;28;20107;-28
2023/08/10 12:09:12;;;;;;;4.05;2.35;;;;;;;;;;5094615;28;20036;-34
2023/08/10 12:11:39;;;;;;;8.70;2.33;;;;;;;;;;5094559;28;20025;-27
2023/08/10 12:14:08;;;;;;;6.22;2.38;;;;;;;;;;5094869;28;20032;-32
2023/08/10 12:16:34;;;;;;;3.60;3.30;;;;;;;;;;5098750;28;20035;-31
2023/08/10 12:19:01;;;;;;;10.80;2.75;;;;;;;;;;5098695;28;20116;-32
2023/08/10 12:21:27;;;;;;;2.65;2.45;;;;;;;;;;5098663;28;20040;-30
2023/08/10 12:23:55;;;;;;;5.63;2.92;;;;;;;;;;5098783;28;20032;-31
2023/08/10 12:26:21;;;;;;;5.00;2.47;;;;;;;;;;5098456;28;20036;-30
2023/08/10 12:28:47;;;;;;;11.52;3.42;;;;;;;;;;5097569;28;20535;-32
2023/08/10 12:31:13;;;;;;;4.85;2.35;;;;;;;;;;5098413;28;20097;-29
2023/08/10 12:33:40;;;;;;;6.30;2.72;;;;;;;;;;5098631;28;20404;-30
2023/08/10 12:36:07;;;;;;;3.90;2.63;;;;;;;;;;5098613;28;20362;-26
2023/08/10 12:38:33;;;;;;;4.60;2.35;;;;;;;;;;5099387;28;20028;-27
2023/08/10 12:40:59;;;;;;;10.88;2.58;;;;;;;;;;5098277;28;20412;-32
2023/08/10 12:43:26;;;;;;;6.25;3.47;;;;;;;;;;5098652;28;20024;-31
2023/08/10 12:45:53;;;;;;;13.32;3.88;;;;;;;;;;5098344;28;20028;-31
2023/08/10 12:48:19;;;;;;;6.70;3.00;;;;;;;;;;5098428;28;20024;-30
2023/08/10 12:50:46;;;;;;;6.10;2.95;;;;;;;;;;5098019;28;20024;-29
2023/08/10 12:53:12;;;;;;;6.43;2.83;;;;;;;;;;5098175;28;20036;-33
2023/08/10 12:55:38;;;;;;;3.65;2.70;;;;;;;;;;5097857;28;20047;-32
2023/08/10 12:58:04;;;;;;;5.28;2.33;;;;;;;;;;5098212;28;20363;-30
2023/08/10 13:00:30;;;;;;;6.82;2.60;;;;;;;;;;5098077;28;20028;-32
2023/08/10 13:02:57;;;;;;;4.85;2.72;;;;;;;;;;5097732;28;20036;-31
2023/08/10 13:05:23;;;;;;;5.53;2.67;;;;;;;;;;5097664;28;20116;-31
2023/08/10 13:07:49;;;;;;;10.15;2.95;;;;;;;;;;5097988;28;20012;-32
2023/08/10 13:10:15;;;;;;;13.98;3.42;;;;;;;;;;5097521;28;20027;-30
2023/08/10 13:12:43;;;;;;;6.47;2.58;;;;;;;;;;5097503;28;20358;-30
2023/08/10 13:15:09;;;;;;;7.13;2.33;;;;;;;;;;5097490;28;20020;-32
2023/08/10 13:17:36;;;;;;;3.97;2.58;;;;;;;;;;5097710;28;20024;-31
2023/08/10 13:20:03;;;;;;;8.43;2.22;;;;;;;;;;5098191;28;20055;-33
2023/08/10 13:22:33;;;;;;;7.63;3.00;;;;;;;;;;5097235;28;20418;-32
2023/08/10 13:25:00;;;;;;;3.53;1.95;;;;;;;;;;5097691;28;20101;-30
2023/08/10 13:27:26;;;;;;;4.72;2.35;;;;;;;;;;5096488;28;20075;-27
2023/08/10 13:29:53;;;;;;;6.80;2.53;;;;;;;;;;5097331;28;20461;-29
2023/08/10 13:32:20;;;;;;;13.48;2.67;;;;;;;;;;5097136;28;20127;-31
2023/08/10 13:34:46;;;;;;;8.38;2.88;;;;;;;;;;5097563;28;20020;-30
2023/08/10 13:37:13;;;;;;;3.95;3.60;;;;;;;;;;5097037;28;20028;-30
2023/08/10 13:39:39;;;;;;;9.68;2.78;;;;;;;;;;5097085;28;20024;-30
2023/08/10 13:42:05;;;;;;;3.28;2.45;;;;;;;;;;5096003;28;20032;-32
2023/08/10 13:44:32;;;;;;;2.95;2.65;;;;;;;;;;5097163;28;20035;-33
2023/08/10 13:46:58;;;;;;;7.72;3.70;;;;;;;;;;5097108;28;20038;-30
2023/08/10 13:49:24;;;;;;;10.82;2.67;;;;;;;;;;5097214;28;20032;-30
2023/08/10 13:51:51;;;;;;;11.73;3.15;;;;;;;;;;5097235;28;20304;-33
2023/08/10 13:54:17;;;;;;;5.25;2.60;;;;;;;;;;5097493;28;20025;-31
2023/08/10 13:56:55;;;;;;;8.88;2.83;;;;;;;;;;5096580;28;20115;-32
2023/08/10 13:59:21;;;;;;;4.90;2.70;;;;;;;;;;5096593;28;20103;-32
2023/08/10 14:01:47;;;;;;;6.85;2.55;;;;;;;;;;5096781;28;20320;-31
2023/08/10 14:04:13;;;;;;;4.75;2.22;;;;;;;;;;5096391;28;20047;-32
2023/08/10 14:06:39;;;;;;;8.65;2.53;;;;;;;;;;5096633;28;20029;-30
2023/08/10 14:09:07;;;;;;;14.52;2.95;;;;;;;;;;5096681;28;20052;-31
2023/08/10 14:11:33;;;;;;;6.75;2.70;;;;;;;;;;5096211;28;20355;-29
2023/08/10 14:13:59;;;;;;;11.93;3.30;;;;;;;;;;5096095;28;20084;-31
2023/08/10 14:16:25;;;;;;;9.23;2.75;;;;;;;;;;5096622;28;20051;-28
2023/08/10 14:18:51;;;;;;;3.38;2.25;;;;;;;;;;5096150;28;20039;-31
2023/08/10 14:21:20;;;;;;;6.25;2.42;;;;;;;;;;5096123;28;20028;-28
2023/08/10 14:23:46;;;;;;;4.85;2.50;;;;;;;;;;5096369;28;20024;-30
2023/08/10 14:26:12;;;;;;;8.30;2.60;;;;;;;;;;5096048;28;20028;-32
2023/08/10 14:28:39;;;;;;;5.50;2.75;;;;;;;;;;5096257;28;20031;-31
2023/08/10 14:31:05;;;;;;;5.03;3.75;;;;;;;;;;5096297;28;20020;-31
2023/08/10 14:33:31;;;;;;;11.50;3.00;;;;;;;;;;5096101;28;20051;-32
2023/08/10 14:35:58;;;;;;;6.72;2.28;;;;;;;;;;5095754;28;20035;-32
2023/08/10 14:38:24;;;;;;;31.38;6.10;;;;;;;;;;5094605;28;20100;-27
2023/08/10 14:40:50;;;;;;;21.83;4.88;;;;;;;;;;5095841;28;20031;-34